ボードー の空港の天気 - METARとTAF

Bodo Vi ( ENBO / BOO ) - ノルウェー ヌールラン県ボードー
飛行場実況気象(Metar)
観測時間12/14 07:20 CET (12/14 06:20 UTC)
風向・風速東南東 4m/s
視程10km以上
天気現象
少しの雲 雲底高度 610m
全天の8割程度の雲 雲底高度 1520m
気温3℃
湿度81%
気圧1029hPa
METARENBO 140620Z 11008KT 9999 FEW020 BKN050 03/M00 Q1029 NOSIG
過去の天気等 Google飛行場航空写真 Wunderground天気予報

過去48時間のMETAR

飛行場予報(TAF)
発表時間: -
TAF ENBO 1406/1506 10008KT 9999 FEW015 BKN030